createdAt,value
2018-05-07T00:01:11.288Z,3.60
2018-05-07T00:03:38.807Z,3.47
2018-05-07T00:06:06.514Z,3.67
2018-05-07T00:08:34.076Z,3.40
2018-05-07T00:11:01.679Z,3.40
2018-05-07T00:19:36.383Z,3.50
2018-05-07T00:22:28.219Z,3.37
2018-05-07T00:24:56.005Z,3.43
2018-05-07T00:27:24.402Z,3.93
2018-05-07T00:29:52.030Z,3.50
2018-05-07T00:32:19.619Z,3.97
2018-05-07T00:34:47.237Z,3.40
2018-05-07T00:37:14.857Z,3.20
2018-05-07T00:39:42.482Z,3.40
2018-05-07T00:42:09.992Z,3.77
2018-05-07T00:44:37.490Z,3.57
2018-05-07T00:47:04.986Z,3.83
2018-05-07T00:49:33.255Z,3.53
2018-05-07T00:52:01.525Z,3.50
2018-05-07T00:54:30.073Z,3.23
2018-05-07T00:56:57.581Z,3.70
2018-05-07T00:59:25.086Z,3.80
2018-05-07T01:01:52.593Z,3.50
2018-05-07T01:04:20.862Z,3.93
2018-05-07T01:06:49.129Z,3.90
2018-05-07T01:09:16.640Z,3.93
2018-05-07T01:11:44.149Z,3.90
2018-05-07T01:19:59.097Z,4.17
2018-05-07T01:22:26.712Z,4.37
2018-05-07T01:24:54.204Z,4.13
2018-05-07T01:27:21.701Z,4.33
2018-05-07T01:29:49.197Z,4.20
2018-05-07T01:32:17.466Z,4.33
2018-05-07T01:34:44.965Z,4.87
2018-05-07T01:37:12.476Z,4.60
2018-05-07T01:39:39.977Z,4.53
2018-05-07T01:42:07.472Z,4.53
2018-05-07T01:44:34.973Z,4.80
2018-05-07T01:47:03.238Z,4.80
2018-05-07T01:49:30.733Z,5.50
2018-05-07T01:51:58.317Z,5.03
2018-05-07T01:54:25.832Z,5.40
2018-05-07T01:56:54.101Z,5.23
2018-05-07T01:59:22.371Z,4.70
2018-05-07T02:01:49.869Z,4.90
2018-05-07T02:04:17.372Z,4.97
2018-05-07T02:06:44.866Z,5.30
2018-05-07T02:09:13.142Z,4.97
2018-05-07T02:11:41.410Z,5.27
2018-05-07T02:14:10.329Z,5.03
2018-05-07T02:16:37.825Z,5.73
2018-05-07T02:19:05.323Z,5.57
2018-05-07T02:21:53.168Z,5.17
2018-05-07T02:27:14.589Z,6.10
2018-05-07T02:29:42.881Z,5.60
2018-05-07T02:32:11.150Z,5.07
2018-05-07T02:34:39.419Z,5.77
2018-05-07T02:37:07.686Z,5.13
2018-05-07T02:39:35.184Z,5.33
2018-05-07T02:42:02.703Z,5.47
2018-05-07T02:44:30.202Z,5.70
2018-05-07T02:46:57.710Z,5.67
2018-05-07T02:49:25.206Z,5.90
2018-05-07T02:51:53.478Z,7.40
2018-05-07T02:54:21.753Z,5.27
2018-05-07T02:56:50.029Z,5.73
2018-05-07T02:59:18.300Z,5.30
2018-05-07T03:01:46.589Z,5.30
2018-05-07T03:04:14.128Z,5.53
2018-05-07T03:06:41.620Z,5.53
2018-05-07T03:09:09.125Z,5.57
2018-05-07T03:11:36.629Z,5.70
2018-05-07T03:14:11.062Z,6.07
2018-05-07T03:22:26.414Z,5.43
2018-05-07T03:24:53.916Z,6.57
2018-05-07T03:27:22.177Z,7.90
2018-05-07T03:29:49.670Z,6.43
2018-05-07T03:32:17.169Z,7.23
2018-05-07T03:34:44.668Z,6.93
2018-05-07T03:37:12.926Z,7.10
2018-05-07T03:39:40.425Z,6.93
2018-05-07T03:42:07.922Z,6.93
2018-05-07T03:44:35.417Z,6.23
2018-05-07T03:47:03.681Z,6.93
2018-05-07T03:49:31.183Z,7.03
2018-05-07T03:51:58.941Z,7.70
2018-05-07T03:54:26.441Z,6.93
2018-05-07T03:56:53.940Z,7.67
2018-05-07T03:59:22.205Z,9.07
2018-05-07T04:01:49.701Z,10.47
2018-05-07T04:04:17.201Z,10.93
2018-05-07T04:06:44.702Z,10.57
2018-05-07T04:09:12.978Z,10.33
2018-05-07T04:11:41.242Z,8.90
2018-05-07T04:14:16.077Z,8.70
2018-05-07T04:16:56.005Z,8.63
2018-05-07T04:22:27.833Z,7.57
2018-05-07T04:24:55.328Z,6.93
2018-05-07T04:27:22.834Z,7.00
2018-05-07T04:29:51.114Z,6.57
2018-05-07T04:32:18.622Z,7.03
2018-05-07T04:34:46.131Z,6.43
2018-05-07T04:37:14.394Z,6.60
2018-05-07T04:39:42.658Z,7.07
2018-05-07T04:42:10.161Z,6.80
2018-05-07T04:44:37.661Z,6.30
2018-05-07T04:47:05.173Z,7.13
2018-05-07T04:49:32.676Z,6.80
2018-05-07T04:52:00.181Z,6.47
2018-05-07T04:54:27.774Z,6.70
2018-05-07T04:56:55.282Z,6.67
2018-05-07T04:59:23.556Z,7.53
2018-05-07T05:01:51.829Z,6.70
2018-05-07T05:04:20.103Z,6.60
2018-05-07T05:06:47.604Z,7.30
2018-05-07T05:09:15.113Z,7.60
2018-05-07T05:11:42.613Z,7.50
2018-05-07T05:20:05.253Z,7.80
2018-05-07T06:26:34.172Z,5.30
2018-05-07T06:29:01.670Z,5.50
2018-05-07T06:31:29.938Z,5.60
2018-05-07T06:33:57.439Z,5.30
2018-05-07T06:36:24.941Z,4.93
2018-05-07T06:38:52.463Z,4.90
2018-05-07T06:41:19.986Z,5.40
2018-05-07T06:43:47.509Z,4.83
2018-05-07T06:46:15.030Z,5.27
2018-05-07T06:48:42.554Z,5.20
2018-05-07T06:51:10.829Z,5.37
2018-05-07T06:53:38.596Z,5.60
2018-05-07T06:56:06.098Z,5.50
2018-05-07T06:58:33.622Z,5.10
2018-05-07T07:01:01.906Z,5.60
2018-05-07T07:03:30.174Z,5.03
2018-05-07T07:05:58.442Z,4.80
2018-05-07T07:08:26.047Z,4.87
2018-05-07T07:10:53.461Z,4.33
2018-05-07T07:13:39.716Z,5.00
2018-05-07T07:19:01.700Z,4.90
2018-05-07T07:21:36.373Z,5.63
2018-05-07T07:24:03.912Z,4.40
2018-05-07T07:26:32.182Z,4.83
2018-05-07T07:29:00.446Z,4.83
2018-05-07T07:31:27.968Z,5.00
2018-05-07T07:33:55.519Z,5.30
2018-05-07T07:36:23.009Z,5.40
2018-05-07T07:38:50.505Z,5.50
2018-05-07T07:41:18.774Z,5.40
2018-05-07T07:43:47.032Z,5.33
2018-05-07T07:46:14.534Z,5.47
2018-05-07T07:48:42.038Z,4.90
2018-05-07T07:51:09.549Z,4.20
2018-05-07T07:53:37.114Z,5.00
2018-05-07T07:56:04.574Z,4.60
2018-05-07T07:58:32.077Z,4.47
2018-05-07T08:00:59.573Z,4.63
2018-05-07T08:03:27.845Z,5.00
2018-05-07T08:05:56.128Z,4.17
2018-05-07T08:08:24.393Z,4.53
2018-05-07T08:10:52.659Z,4.77
2018-05-07T08:19:05.967Z,3.90
2018-05-07T08:21:52.386Z,3.70
2018-05-07T08:24:19.913Z,3.60
2018-05-07T08:26:48.344Z,3.43
2018-05-07T08:29:15.853Z,3.53
2018-05-07T08:31:44.118Z,3.87
2018-05-07T08:34:12.381Z,3.90
2018-05-07T08:36:39.896Z,3.63
2018-05-07T08:39:07.403Z,4.97
2018-05-07T08:41:34.911Z,3.90
2018-05-07T08:44:02.411Z,3.60
2018-05-07T08:46:29.909Z,4.10
2018-05-07T08:48:57.425Z,3.77
2018-05-07T08:51:24.924Z,3.63
2018-05-07T08:53:52.425Z,2.97
2018-05-07T08:56:19.993Z,3.10
2018-05-07T08:58:47.484Z,2.97
2018-05-07T09:01:15.762Z,2.90
2018-05-07T09:03:44.022Z,3.40
2018-05-07T09:06:11.522Z,3.27
2018-05-07T09:08:39.028Z,2.80
2018-05-07T09:11:06.520Z,2.63
2018-05-07T09:16:27.321Z,2.53
2018-05-07T09:19:00.756Z,2.20
2018-05-07T09:21:28.499Z,2.43
2018-05-07T10:12:22.950Z,2.33
2018-05-07T10:14:50.454Z,2.53
2018-05-07T10:17:21.706Z,2.40
2018-05-07T10:19:54.986Z,2.40
2018-05-07T11:14:23.069Z,2.37
2018-05-07T11:16:50.833Z,2.97
2018-05-07T11:19:19.761Z,2.67
2018-05-07T11:21:51.537Z,2.37
2018-05-07T11:24:19.065Z,2.83
2018-05-07T11:26:46.668Z,2.53
2018-05-07T11:29:14.166Z,2.50
2018-05-07T11:31:41.669Z,2.67
2018-05-07T11:34:09.166Z,2.73
2018-05-07T11:36:37.435Z,2.93
2018-05-07T11:39:05.880Z,2.70
2018-05-07T11:41:33.363Z,2.60
2018-05-07T11:44:00.865Z,2.73
2018-05-07T11:46:28.369Z,3.00
2018-05-07T11:48:55.861Z,2.30
2018-05-07T11:51:24.125Z,2.80
2018-05-07T11:53:51.630Z,2.73
2018-05-07T11:56:19.128Z,2.60
2018-05-07T11:58:46.622Z,2.93
2018-05-07T12:01:14.912Z,2.97
2018-05-07T12:03:42.424Z,2.90
2018-05-07T12:06:09.918Z,3.07
2018-05-07T12:08:38.186Z,2.70
2018-05-07T12:11:06.441Z,2.80
2018-05-07T12:13:33.937Z,2.70
2018-05-07T12:16:01.470Z,3.00
2018-05-07T12:21:22.424Z,2.67
2018-05-07T12:23:49.918Z,3.00
2018-05-07T12:26:17.430Z,2.90
2018-05-07T12:28:45.685Z,2.73
2018-05-07T12:31:13.261Z,2.40
2018-05-07T12:33:40.697Z,2.30
2018-05-07T12:36:08.209Z,2.77
2018-05-07T12:38:35.708Z,2.70
2018-05-07T12:41:03.204Z,2.93
2018-05-07T12:43:31.475Z,2.50
2018-05-07T12:45:59.740Z,2.30
2018-05-07T12:48:27.249Z,2.60
2018-05-07T12:50:54.753Z,3.00
2018-05-07T12:53:22.254Z,2.37
2018-05-07T12:55:49.758Z,2.70
2018-05-07T12:58:17.257Z,2.97
2018-05-07T13:00:44.753Z,2.90
2018-05-07T13:03:12.258Z,3.80
2018-05-07T13:05:40.526Z,2.67
2018-05-07T13:08:08.025Z,2.87
2018-05-07T13:10:35.530Z,3.10
2018-05-07T13:13:03.034Z,3.10
2018-05-07T13:15:30.553Z,2.60
2018-05-07T13:17:58.055Z,2.40
2018-05-07T13:20:25.549Z,2.50
2018-05-07T13:23:16.417Z,2.87
2018-05-07T13:25:44.018Z,2.70
2018-05-07T13:28:11.528Z,3.37
2018-05-07T13:30:39.793Z,2.90
2018-05-07T13:33:08.064Z,2.73
2018-05-07T13:35:35.566Z,2.27
2018-05-07T13:38:03.067Z,2.37
2018-05-07T13:40:30.569Z,2.37
2018-05-07T13:42:58.089Z,2.30
2018-05-07T13:45:25.585Z,2.13
2018-05-07T13:47:53.089Z,2.37
2018-05-07T13:50:20.587Z,2.50
2018-05-07T13:52:48.858Z,2.43
2018-05-07T13:55:17.202Z,2.30
2018-05-07T13:57:45.396Z,2.20
2018-05-07T14:00:12.895Z,2.10
2018-05-07T14:02:40.416Z,2.40
2018-05-07T14:05:07.928Z,2.23
2018-05-07T14:07:35.434Z,2.50
2018-05-07T14:10:02.930Z,2.27
2018-05-07T14:12:30.438Z,2.13
2018-05-07T14:20:54.337Z,2.50
2018-05-07T14:23:21.833Z,2.40
2018-05-07T14:25:50.098Z,2.30
2018-05-07T14:28:18.390Z,2.17
2018-05-07T14:30:46.653Z,2.37
2018-05-07T14:33:14.154Z,2.03
2018-05-07T14:35:41.663Z,2.00
2018-05-07T14:38:09.226Z,2.10
2018-05-07T14:40:36.726Z,2.20
2018-05-07T14:43:04.249Z,2.00
2018-05-07T14:45:31.754Z,1.90
2018-05-07T14:47:59.256Z,1.73
2018-05-07T14:50:26.754Z,2.00
2018-05-07T14:52:55.020Z,2.30
2018-05-07T14:55:23.281Z,2.10
2018-05-07T14:57:50.800Z,2.10
2018-05-07T15:00:18.299Z,2.20
2018-05-07T15:02:45.797Z,2.00
2018-05-07T15:05:13.294Z,2.03
2018-05-07T15:07:40.801Z,2.20
2018-05-07T15:10:09.082Z,2.33
2018-05-07T15:12:36.748Z,2.00
2018-05-07T15:17:57.093Z,2.40
2018-05-07T15:20:24.589Z,2.50
2018-05-07T16:20:30.877Z,3.30
2018-05-07T16:22:58.560Z,3.27
2018-05-07T16:25:26.062Z,2.87
2018-05-07T16:27:53.565Z,2.80
2018-05-07T16:30:21.067Z,2.53
2018-05-07T16:32:48.585Z,3.00
2018-05-07T16:35:16.090Z,2.80
2018-05-07T16:37:43.649Z,2.83
2018-05-07T16:40:11.138Z,2.83
2018-05-07T16:42:39.478Z,3.10
2018-05-07T16:45:07.678Z,2.77
2018-05-07T16:47:35.177Z,2.80
2018-05-07T16:50:02.687Z,2.53
2018-05-07T16:52:30.185Z,2.80
2018-05-07T16:54:57.778Z,2.60
2018-05-07T16:57:25.317Z,2.80
2018-05-07T16:59:53.561Z,2.90
2018-05-07T17:02:21.829Z,3.40
2018-05-07T17:04:49.329Z,3.23
2018-05-07T17:07:16.825Z,3.70
2018-05-07T17:09:44.329Z,2.60
2018-05-07T17:15:06.526Z,2.80
2018-05-07T18:18:05.248Z,2.30
2018-05-07T18:20:32.741Z,2.43
2018-05-07T18:23:01.007Z,2.07
2018-05-07T18:25:28.829Z,2.90
2018-05-07T18:27:56.329Z,2.77
2018-05-07T18:30:23.837Z,2.50
2018-05-07T18:32:51.341Z,2.67
2018-05-07T18:35:18.862Z,2.50
2018-05-07T18:37:46.361Z,3.87
2018-05-07T18:40:13.856Z,2.63
2018-05-07T18:42:41.373Z,2.50
2018-05-07T18:45:08.882Z,2.27
2018-05-07T18:47:36.395Z,2.43
2018-05-07T18:50:03.893Z,2.43
2018-05-07T18:52:31.401Z,2.37
2018-05-07T18:54:58.906Z,2.50
2018-05-07T18:57:27.172Z,2.20
2018-05-07T18:59:55.453Z,2.40
2018-05-07T19:02:23.721Z,2.00
2018-05-07T19:04:51.993Z,1.83
2018-05-07T19:07:20.261Z,1.90
2018-05-07T19:09:47.761Z,1.97
2018-05-07T19:12:15.261Z,2.13
2018-05-07T19:17:35.476Z,1.60
2018-05-07T19:20:12.918Z,1.87
2018-05-07T19:22:40.442Z,1.50
2018-05-07T20:13:47.058Z,1.37
2018-05-07T20:16:15.321Z,1.30
2018-05-07T20:18:48.710Z,1.30
2018-05-07T20:21:16.205Z,1.57
2018-05-07T20:23:44.502Z,1.40
2018-05-07T20:26:12.156Z,1.20
2018-05-07T20:28:39.661Z,1.57
2018-05-07T20:31:07.230Z,1.40
2018-05-07T20:33:34.734Z,1.37
2018-05-07T20:36:02.337Z,1.40
2018-05-07T20:38:30.021Z,1.23
2018-05-07T20:40:57.591Z,1.37
2018-05-07T20:43:25.885Z,1.50
2018-05-07T20:48:28.060Z,1.50
2018-05-07T20:50:56.349Z,1.47
2018-05-07T20:53:24.617Z,1.43
2018-05-07T20:55:52.877Z,1.60
2018-05-07T20:58:21.397Z,1.40
2018-05-07T21:00:48.942Z,1.43
2018-05-07T21:03:17.209Z,1.50
2018-05-07T21:05:45.468Z,1.47
2018-05-07T21:08:13.009Z,1.20
2018-05-07T21:10:40.751Z,1.40
2018-05-07T21:13:08.276Z,1.50
2018-05-07T21:15:37.433Z,1.40
2018-05-07T21:18:04.933Z,1.40
2018-05-07T21:20:33.246Z,1.30
2018-05-07T21:23:00.753Z,1.60
2018-05-07T21:25:28.248Z,1.60
2018-05-07T21:27:55.893Z,1.60
2018-05-07T21:30:24.155Z,1.60
2018-05-07T21:32:53.493Z,1.47
2018-05-07T21:35:21.127Z,1.90
2018-05-07T21:37:49.413Z,1.40
2018-05-07T21:40:17.784Z,1.57
2018-05-07T21:42:46.054Z,1.60
2018-05-07T21:45:14.317Z,1.70
2018-05-07T21:47:41.817Z,1.90
2018-05-07T21:50:09.325Z,1.90
2018-05-07T21:52:36.833Z,1.73
2018-05-07T21:55:04.365Z,1.97
2018-05-07T21:57:32.652Z,2.20
2018-05-07T22:00:01.050Z,2.20
2018-05-07T22:02:28.596Z,2.10
2018-05-07T22:04:57.060Z,2.40
2018-05-07T22:07:25.324Z,2.57
2018-05-07T22:09:52.837Z,2.50
2018-05-07T22:12:21.062Z,2.53
2018-05-07T22:17:42.541Z,2.40
2018-05-07T23:17:45.702Z,5.00
